Time;durP1;ratioP1;P1;durP2;ratioP2;P2;SDS_P1;SDS_P2;PMS_P1;PMS_P2;Temp;Humidity;BMP_temperature;BMP_pressure;BME280_temperature;BME280_humidity;BME280_pressure;Samples;Min_cycle;Max_cycle;Signal;HPM_P1;HPM_P2
2023/08/05 00:00:34;;;;;;;8.40;2.63;;;16.90;99.90;;;;;;5033100;28;20050;-78
2023/08/05 00:03:20;;;;;;;5.80;2.65;;;16.80;99.90;;;;;;5001518;28;20081;-78
2023/08/05 00:06:06;;;;;;;6.90;2.95;;;16.80;99.90;;;;;;5018802;28;20075;-78
2023/08/05 00:08:53;;;;;;;8.70;2.80;;;16.80;99.90;;;;;;5015201;28;20054;-78
2023/08/05 00:11:39;;;;;;;11.68;3.30;;;16.80;99.90;;;;;;5033021;28;20052;-78
2023/08/05 00:14:25;;;;;;;10.07;2.80;;;16.80;99.90;;;;;;5033086;28;20038;-78
2023/08/05 00:17:11;;;;;;;10.75;3.28;;;16.80;99.90;;;;;;5015953;28;20068;-78
2023/08/05 00:19:57;;;;;;;12.73;3.25;;;16.70;99.90;;;;;;5032638;28;20452;-77
2023/08/05 00:22:44;;;;;;;9.30;3.60;;;16.70;99.90;;;;;;5031661;28;20404;-78
2023/08/05 00:25:30;;;;;;;8.82;3.75;;;16.60;99.90;;;;;;5032606;28;20056;-77
2023/08/05 00:28:16;;;;;;;7.78;3.38;;;16.60;99.90;;;;;;5031068;28;20347;-78
2023/08/05 00:31:08;;;;;;;20.63;5.60;;;16.60;99.90;;;;;;5032226;28;20052;-79
2023/08/05 00:33:54;;;;;;;10.73;3.78;;;16.60;99.90;;;;;;5017433;28;20079;-78
2023/08/05 00:36:40;;;;;;;8.00;3.78;;;16.60;99.90;;;;;;5032202;28;20405;-78
2023/08/05 00:39:26;;;;;;;8.98;3.90;;;16.60;99.90;;;;;;5031686;28;20037;-78
2023/08/05 00:42:12;;;;;;;10.10;4.07;;;16.60;99.90;;;;;;5017907;28;20060;-79
2023/08/05 00:44:58;;;;;;;12.68;4.35;;;16.60;99.90;;;;;;5032197;28;20140;-79
2023/08/05 00:47:44;;;;;;;9.20;4.15;;;16.50;99.90;;;;;;5032068;28;20049;-79
2023/08/05 00:50:32;;;;;;;11.40;3.95;;;16.50;99.90;;;;;;5031852;28;20549;-78
2023/08/05 00:53:22;;;;;;;9.07;4.50;;;16.50;99.90;;;;;;5031286;28;20093;-78
2023/08/05 00:56:09;;;;;;;8.20;3.42;;;16.40;99.90;;;;;;5031789;28;20053;-78
2023/08/05 00:58:55;;;;;;;10.55;4.13;;;16.40;99.90;;;;;;5001079;28;20091;-78
2023/08/05 01:01:41;;;;;;;8.15;3.53;;;16.40;99.90;;;;;;5031982;28;20436;-78
2023/08/05 01:04:27;;;;;;;7.10;3.30;;;16.30;99.90;;;;;;5014316;28;20132;-77
2023/08/05 01:07:16;;;;;;;9.77;3.88;;;16.30;99.90;;;;;;5031436;28;20461;-77
2023/08/05 01:10:02;;;;;;;8.15;3.58;;;16.20;99.90;;;;;;5031458;28;20088;-78
2023/08/05 01:12:49;;;;;;;9.35;3.47;;;16.10;99.90;;;;;;5031357;28;20493;-77
2023/08/05 01:15:35;;;;;;;7.97;3.40;;;16.10;99.90;;;;;;5014240;28;20060;-79
2023/08/05 01:18:23;;;;;;;13.23;4.28;;;16.00;99.90;;;;;;5001096;28;20053;-77
2023/08/05 01:21:16;;;;;;;9.63;3.28;;;16.00;99.90;;;;;;5031546;28;20041;-78
2023/08/05 01:24:05;;;;;;;6.65;3.25;;;15.90;99.90;;;;;;5013824;28;20050;-77
2023/08/05 01:26:53;;;;;;;8.82;3.50;;;15.90;99.90;;;;;;5000869;28;20049;-77
2023/08/05 01:29:39;;;;;;;9.18;3.58;;;15.90;99.90;;;;;;5031486;28;20084;-78
2023/08/05 01:32:27;;;;;;;8.18;4.32;;;15.90;99.90;;;;;;5014183;28;20513;-78
2023/08/05 01:35:14;;;;;;;9.50;3.03;;;15.90;99.90;;;;;;5031166;28;20042;-78
2023/08/05 01:38:00;;;;;;;6.28;3.20;;;15.80;99.90;;;;;;5030930;28;20052;-77
2023/08/05 01:40:46;;;;;;;18.27;3.45;;;15.90;99.90;;;;;;5012692;28;20081;-77
2023/08/05 01:43:32;;;;;;;8.18;2.85;;;15.80;99.90;;;;;;5030522;28;20465;-77
2023/08/05 01:46:18;;;;;;;7.35;2.78;;;15.80;99.90;;;;;;5030159;28;20409;-78
2023/08/05 01:49:04;;;;;;;10.88;3.22;;;15.80;99.90;;;;;;5013217;28;20116;-77
2023/08/05 01:51:50;;;;;;;7.88;2.97;;;15.80;99.90;;;;;;5030947;28;20049;-77
2023/08/05 01:54:36;;;;;;;8.05;3.17;;;15.90;99.90;;;;;;5030184;28;20057;-77
2023/08/05 01:57:22;;;;;;;6.28;2.92;;;15.80;99.90;;;;;;5013599;28;20057;-77
2023/08/05 02:00:09;;;;;;;8.00;3.35;;;15.90;99.90;;;;;;5030853;28;20077;-77
2023/08/05 02:02:55;;;;;;;7.20;2.70;;;15.80;99.90;;;;;;5016595;28;20045;-77
2023/08/05 02:05:41;;;;;;;6.55;2.65;;;15.90;99.90;;;;;;5016224;28;20498;-77
2023/08/05 02:08:27;;;;;;;7.68;3.40;;;15.80;99.90;;;;;;5030831;28;20053;-77
2023/08/05 02:11:13;;;;;;;6.40;2.53;;;15.90;99.90;;;;;;5030667;28;20457;-77
2023/08/05 02:13:59;;;;;;;7.28;3.00;;;15.90;99.90;;;;;;5012505;28;20508;-77
2023/08/05 02:16:45;;;;;;;5.15;2.55;;;15.90;99.90;;;;;;5030493;28;20060;-77
2023/08/05 02:19:31;;;;;;;7.55;3.00;;;15.80;99.90;;;;;;5030643;28;20064;-78
2023/08/05 02:22:17;;;;;;;8.98;3.20;;;15.80;99.90;;;;;;5013132;28;20045;-77
2023/08/05 02:25:04;;;;;;;7.85;3.05;;;15.80;99.90;;;;;;5030604;28;20103;-77
2023/08/05 02:27:50;;;;;;;7.68;2.88;;;15.80;99.90;;;;;;5012727;28;20052;-77
2023/08/05 02:30:36;;;;;;;10.88;3.10;;;15.70;99.90;;;;;;5012730;28;20057;-78
2023/08/05 02:33:22;;;;;;;8.27;3.25;;;15.60;99.90;;;;;;5029519;28;20420;-77
2023/08/05 02:36:08;;;;;;;8.05;3.60;;;15.60;99.90;;;;;;5030348;28;20067;-77
2023/08/05 02:38:54;;;;;;;5.75;2.58;;;15.60;99.90;;;;;;5012874;28;20057;-78
2023/08/05 02:41:40;;;;;;;10.60;4.03;;;15.60;99.90;;;;;;5030750;28;20408;-77
2023/08/05 02:44:26;;;;;;;7.78;2.88;;;15.50;99.90;;;;;;5016676;28;20080;-77
2023/08/05 02:47:12;;;;;;;7.18;3.10;;;15.50;99.90;;;;;;5030086;28;20595;-78
2023/08/05 02:49:58;;;;;;;7.75;2.75;;;15.50;99.90;;;;;;4999128;28;20060;-77
2023/08/05 02:52:44;;;;;;;8.70;3.08;;;15.50;99.90;;;;;;5013824;28;20100;-77
2023/08/05 02:55:30;;;;;;;7.90;3.50;;;15.40;99.90;;;;;;5034209;28;20045;-77
2023/08/05 02:58:17;;;;;;;6.97;3.40;;;15.40;99.90;;;;;;5033893;28;20049;-77
2023/08/05 03:01:08;;;;;;;10.05;3.85;;;15.40;99.90;;;;;;5016616;28;20076;-77
2023/08/05 03:03:54;;;;;;;7.72;3.47;;;15.40;99.90;;;;;;5020058;28;20552;-78
2023/08/05 03:06:40;;;;;;;6.90;3.53;;;15.30;99.90;;;;;;5016388;28;20068;-77
2023/08/05 03:09:26;;;;;;;9.02;4.25;;;15.30;99.90;;;;;;5016758;28;20619;-78
2023/08/05 03:12:12;;;;;;;14.20;4.38;;;15.30;99.90;;;;;;5033161;28;20095;-78
2023/08/05 03:14:58;;;;;;;9.70;3.92;;;15.30;99.90;;;;;;5034565;28;20053;-77
2023/08/05 03:17:44;;;;;;;12.65;4.22;;;15.40;99.90;;;;;;5016473;28;20083;-78
2023/08/05 03:20:34;;;;;;;11.95;4.40;;;15.30;99.90;;;;;;5033730;28;20049;-77
2023/08/05 03:23:20;;;;;;;9.60;4.07;;;15.30;99.90;;;;;;5019958;28;20045;-78
2023/08/05 03:26:06;;;;;;;9.93;4.38;;;15.30;99.90;;;;;;5034118;28;20116;-78
2023/08/05 03:28:52;;;;;;;9.75;4.32;;;15.30;99.90;;;;;;5002726;28;20136;-78
2023/08/05 03:31:38;;;;;;;9.32;3.67;;;15.30;99.90;;;;;;5032993;28;20049;-78
2023/08/05 03:34:24;;;;;;;10.73;3.60;;;15.30;99.90;;;;;;5033240;28;20080;-77
2023/08/05 03:37:10;;;;;;;10.07;4.03;;;15.30;99.90;;;;;;5015439;28;20128;-78
2023/08/05 03:39:57;;;;;;;8.50;4.35;;;15.20;99.90;;;;;;5033627;28;20440;-78
2023/08/05 03:42:43;;;;;;;6.78;3.55;;;15.20;99.90;;;;;;5033307;28;20052;-78
2023/08/05 03:45:29;;;;;;;6.43;3.53;;;15.20;99.90;;;;;;5015424;28;20061;-78
2023/08/05 03:48:15;;;;;;;9.23;4.03;;;15.10;99.90;;;;;;5032651;28;20057;-78
2023/08/05 03:51:01;;;;;;;9.35;4.38;;;15.10;99.90;;;;;;5015322;28;20085;-79
2023/08/05 03:53:47;;;;;;;10.82;4.50;;;15.10;99.90;;;;;;5015659;28;20049;-78
2023/08/05 03:56:33;;;;;;;8.85;4.45;;;15.10;99.90;;;;;;5033276;28;20057;-79
2023/08/05 03:59:20;;;;;;;12.15;4.70;;;15.10;99.90;;;;;;5033310;28;20060;-78
2023/08/05 04:02:07;;;;;;;12.63;5.53;;;15.10;99.90;;;;;;5019365;28;20049;-76
2023/08/05 04:04:53;;;;;;;8.25;4.72;;;15.00;99.90;;;;;;5032558;28;20148;-76
2023/08/05 04:07:40;;;;;;;9.40;5.10;;;15.00;99.90;;;;;;5032004;28;20088;-78
2023/08/05 04:10:26;;;;;;;9.60;4.30;;;15.10;99.90;;;;;;5032973;28;20976;-77
2023/08/05 04:13:12;;;;;;;8.50;4.03;;;15.00;99.90;;;;;;5032700;28;20049;-79
2023/08/05 04:16:03;;;;;;;11.77;5.28;;;15.10;99.90;;;;;;5031997;28;20053;-78
2023/08/05 04:18:49;;;;;;;10.98;5.05;;;15.10;99.90;;;;;;5019220;28;20048;-78
2023/08/05 04:21:40;;;;;;;13.55;4.75;;;15.10;99.90;;;;;;5001935;28;20050;-78
2023/08/05 04:24:28;;;;;;;12.75;5.38;;;15.10;99.90;;;;;;5015065;28;20420;-78
2023/08/05 04:27:14;;;;;;;12.60;6.22;;;15.10;99.90;;;;;;5015302;28;20076;-78
2023/08/05 04:30:01;;;;;;;10.23;5.63;;;15.20;99.90;;;;;;5015884;28;20050;-78
2023/08/05 04:32:47;;;;;;;10.35;5.10;;;15.20;99.90;;;;;;5014752;28;20560;-78
2023/08/05 04:35:34;;;;;;;11.30;5.00;;;15.20;99.90;;;;;;5014440;28;20045;-79
2023/08/05 04:38:20;;;;;;;11.30;4.80;;;15.20;99.90;;;;;;5032239;28;20053;-78
2023/08/05 04:41:07;;;;;;;8.77;3.90;;;15.20;99.90;;;;;;5001645;28;20112;-77
2023/08/05 04:43:53;;;;;;;7.80;3.85;;;15.30;99.90;;;;;;5031538;28;20055;-78
2023/08/05 04:46:39;;;;;;;9.88;3.83;;;15.30;99.90;;;;;;5014454;28;20061;-78
2023/08/05 04:49:25;;;;;;;10.45;4.22;;;15.30;99.90;;;;;;5031743;28;20048;-78
2023/08/05 04:52:13;;;;;;;10.63;3.67;;;15.40;99.90;;;;;;5032345;28;20505;-78
2023/08/05 04:55:09;;;;;;;8.82;3.30;;;15.40;99.90;;;;;;5032251;28;20061;-78
2023/08/05 04:57:55;;;;;;;8.70;3.67;;;15.50;99.90;;;;;;5014263;28;20064;-78
2023/08/05 05:00:41;;;;;;;7.53;3.05;;;15.60;99.90;;;;;;5031862;28;20049;-78
2023/08/05 05:03:27;;;;;;;11.25;3.42;;;15.60;99.90;;;;;;5031058;28;20077;-78
2023/08/05 05:06:13;;;;;;;8.60;3.10;;;15.60;99.90;;;;;;5031433;28;20084;-79
2023/08/05 05:08:59;;;;;;;7.43;2.85;;;15.70;99.90;;;;;;5017265;28;20505;-78
2023/08/05 05:11:45;;;;;;;5.75;2.80;;;15.70;99.90;;;;;;5031831;28;20053;-78
2023/08/05 05:14:33;;;;;;;9.90;3.40;;;15.80;99.90;;;;;;5032054;28;20050;-78
2023/08/05 05:17:19;;;;;;;9.02;3.10;;;15.90;99.90;;;;;;5031318;28;20107;-78
2023/08/05 05:20:06;;;;;;;6.97;2.67;;;16.00;99.90;;;;;;5014033;28;20053;-79
2023/08/05 05:22:52;;;;;;;8.68;2.80;;;15.90;99.90;;;;;;5031030;28;20582;-79
2023/08/05 05:25:38;;;;;;;5.38;2.25;;;16.00;99.90;;;;;;5031148;28;20053;-79
2023/08/05 05:28:24;;;;;;;8.02;2.97;;;16.20;99.90;;;;;;5013807;28;20418;-79
2023/08/05 05:31:10;;;;;;;5.75;3.50;;;16.30;99.90;;;;;;5030891;28;20107;-78
2023/08/05 05:33:57;;;;;;;9.18;3.15;;;16.30;99.90;;;;;;5030878;28;20125;-78
2023/08/05 05:36:43;;;;;;;12.77;2.80;;;16.40;99.90;;;;;;5013814;28;20049;-79
2023/08/05 05:39:29;;;;;;;8.23;2.55;;;16.40;99.90;;;;;;5030695;28;20110;-78
2023/08/05 05:42:15;;;;;;;7.95;2.40;;;16.50;99.90;;;;;;5013624;28;20064;-78
2023/08/05 05:45:02;;;;;;;6.60;2.35;;;16.60;99.90;;;;;;5031291;28;20112;-78
2023/08/05 05:47:48;;;;;;;7.57;2.47;;;16.70;99.90;;;;;;5031479;28;20049;-79
2023/08/05 05:50:40;;;;;;;8.35;2.72;;;16.70;99.90;;;;;;5013325;28;20084;-78
2023/08/05 05:53:27;;;;;;;7.82;2.38;;;16.70;99.90;;;;;;5013049;28;20054;-78
2023/08/05 05:56:13;;;;;;;6.82;2.50;;;16.80;99.90;;;;;;5031503;28;20055;-79
2023/08/05 05:58:59;;;;;;;6.97;2.55;;;16.80;99.90;;;;;;5013763;28;20813;-79
2023/08/05 06:01:45;;;;;;;6.75;2.63;;;16.80;99.90;;;;;;5013293;28;20053;-79
2023/08/05 06:04:31;;;;;;;7.78;2.40;;;16.80;99.90;;;;;;5030490;28;20061;-78
2023/08/05 06:07:17;;;;;;;7.60;3.10;;;16.80;99.90;;;;;;5013187;28;20061;-78
2023/08/05 06:10:04;;;;;;;5.28;2.20;;;16.80;99.90;;;;;;5030964;28;20045;-78
2023/08/05 06:12:50;;;;;;;6.03;2.40;;;16.80;99.90;;;;;;5013084;28;20045;-78
2023/08/05 06:15:41;;;;;;;13.88;2.60;;;16.90;99.90;;;;;;5030866;28;20041;-77
2023/08/05 06:18:27;;;;;;;7.03;2.65;;;16.90;99.90;;;;;;5030678;28;20138;-78
2023/08/05 06:21:13;;;;;;;5.97;2.60;;;17.10;99.90;;;;;;5030310;28;20199;-77
2023/08/05 06:23:59;;;;;;;5.72;2.25;;;17.30;99.90;;;;;;5030396;28;20501;-77
2023/08/05 06:26:45;;;;;;;7.95;2.67;;;17.50;99.90;;;;;;4998918;28;20099;-79
2023/08/05 06:29:32;;;;;;;5.55;2.35;;;17.60;99.90;;;;;;5012931;28;20053;-79
2023/08/05 06:32:18;;;;;;;7.00;2.60;;;17.60;99.90;;;;;;5013296;28;20382;-78
2023/08/05 06:35:06;;;;;;;8.93;2.55;;;17.60;99.90;;;;;;5030428;28;20057;-77
2023/08/05 06:37:52;;;;;;;5.45;2.22;;;17.60;99.90;;;;;;5030079;28;20049;-77
2023/08/05 06:40:44;;;;;;;13.75;3.88;;;17.60;99.90;;;;;;5016754;28;20107;-77
2023/08/05 06:43:30;;;;;;;7.68;2.60;;;17.60;99.90;;;;;;5030852;28;20115;-79
2023/08/05 06:46:16;;;;;;;6.78;2.42;;;17.70;99.90;;;;;;5029605;28;20087;-79
2023/08/05 06:49:03;;;;;;;5.18;2.47;;;17.70;99.90;;;;;;5012232;28;20482;-79
2023/08/05 06:51:50;;;;;;;5.05;2.28;;;17.70;99.90;;;;;;5012537;28;20057;-78
2023/08/05 06:54:36;;;;;;;5.57;2.35;;;17.80;99.90;;;;;;5029557;28;20056;-78
2023/08/05 06:57:23;;;;;;;7.82;2.45;;;17.90;99.90;;;;;;5015913;28;20140;-79
2023/08/05 07:00:10;;;;;;;4.25;1.95;;;18.00;99.90;;;;;;5013478;28;20060;-79
2023/08/05 07:03:01;;;;;;;9.90;2.60;;;18.00;99.90;;;;;;5030251;28;20098;-79
2023/08/05 07:05:48;;;;;;;10.20;2.58;;;18.10;99.90;;;;;;5029855;28;20095;-79
2023/08/05 07:08:34;;;;;;;6.15;2.10;;;18.20;99.90;;;;;;5012675;28;20057;-79
2023/08/05 07:11:21;;;;;;;5.75;2.30;;;18.40;99.90;;;;;;5012509;28;20065;-78
2023/08/05 07:14:07;;;;;;;8.48;2.17;;;18.50;99.90;;;;;;5030047;28;20220;-79
2023/08/05 07:16:53;;;;;;;8.45;2.35;;;18.50;99.90;;;;;;5030032;28;20057;-79
2023/08/05 07:19:39;;;;;;;4.32;2.15;;;18.70;99.90;;;;;;5030037;28;20144;-79
2023/08/05 07:22:26;;;;;;;6.00;2.08;;;18.90;99.90;;;;;;5030058;28;20057;-79
2023/08/05 07:25:12;;;;;;;6.65;2.53;;;19.00;99.90;;;;;;5029921;28;20045;-79
2023/08/05 07:27:58;;;;;;;6.97;2.15;;;19.00;99.90;;;;;;5029462;28;20062;-79
2023/08/05 07:30:44;;;;;;;4.50;2.05;;;19.00;99.90;;;;;;4999134;28;20089;-79
2023/08/05 07:33:31;;;;;;;6.28;2.15;;;19.00;99.90;;;;;;5029557;28;20046;-79
2023/08/05 07:36:22;;;;;;;8.45;2.30;;;19.00;99.90;;;;;;5012827;28;20108;-79
2023/08/05 07:39:09;;;;;;;6.10;1.90;;;19.00;99.90;;;;;;5031597;28;20045;-79
2023/08/05 07:41:55;;;;;;;7.20;1.95;;;19.10;99.90;;;;;;5018436;28;20596;-78
2023/08/05 07:44:42;;;;;;;10.50;2.95;;;19.20;99.90;;;;;;5033362;28;20052;-78
2023/08/05 07:47:29;;;;;;;6.05;2.60;;;19.20;99.90;;;;;;5033395;28;20067;-79
2023/08/05 07:50:20;;;;;;;5.25;2.08;;;19.10;99.90;;;;;;5033600;28;20041;-79
2023/08/05 07:53:06;;;;;;;7.38;1.80;;;19.20;99.90;;;;;;5033009;28;20046;-79
2023/08/05 07:55:53;;;;;;;10.02;2.25;;;19.10;99.90;;;;;;5032591;28;20147;-77
2023/08/05 07:58:42;;;;;;;6.63;1.98;;;19.20;99.90;;;;;;5032686;28;20092;-79
2023/08/05 08:01:33;;;;;;;5.20;1.90;;;19.20;99.90;;;;;;5033036;28;20053;-78
2023/08/05 08:04:19;;;;;;;6.60;2.15;;;19.30;99.90;;;;;;5032955;28;20049;-78
2023/08/05 08:07:08;;;;;;;3.88;1.80;;;19.40;99.90;;;;;;5032879;28;20076;-78
2023/08/05 08:09:54;;;;;;;6.65;2.85;;;19.40;99.90;;;;;;5032508;28;20067;-78
2023/08/05 08:12:41;;;;;;;5.57;1.95;;;19.40;99.90;;;;;;5002042;28;20053;-77
2023/08/05 08:15:28;;;;;;;6.75;1.92;;;19.40;99.90;;;;;;5032704;28;20058;-78
2023/08/05 08:18:14;;;;;;;4.28;1.50;;;19.50;99.90;;;;;;5031809;28;20188;-78
2023/08/05 08:21:00;;;;;;;4.80;1.73;;;19.50;99.90;;;;;;5032252;28;20037;-78
2023/08/05 08:23:47;;;;;;;6.13;1.90;;;19.70;99.90;;;;;;5032406;28;20056;-78
2023/08/05 08:26:33;;;;;;;4.65;1.48;;;19.70;99.90;;;;;;5032821;28;20485;-77
2023/08/05 08:29:19;;;;;;;5.47;1.75;;;19.80;99.90;;;;;;5014336;28;20155;-77
2023/08/05 08:32:06;;;;;;;6.53;2.35;;;19.80;99.90;;;;;;5014845;28;20049;-77
2023/08/05 08:34:52;;;;;;;9.35;2.13;;;20.00;99.90;;;;;;5018277;28;20443;-77
2023/08/05 08:37:38;;;;;;;4.60;1.75;;;20.00;99.90;;;;;;5032559;28;20067;-77
2023/08/05 08:40:24;;;;;;;8.07;1.90;;;19.90;99.90;;;;;;5014573;28;20501;-78
2023/08/05 08:43:11;;;;;;;6.70;1.75;;;19.90;99.90;;;;;;5032148;28;20168;-77
2023/08/05 08:45:58;;;;;;;5.63;1.63;;;19.90;99.90;;;;;;5032110;28;20536;-77
2023/08/05 08:48:46;;;;;;;5.93;2.00;;;20.00;99.90;;;;;;5032508;28;20060;-77
2023/08/05 08:51:35;;;;;;;5.40;2.15;;;19.90;99.90;;;;;;5031196;28;20409;-77
2023/08/05 08:54:26;;;;;;;5.28;1.85;;;20.10;99.90;;;;;;5032025;28;20432;-78
2023/08/05 08:57:13;;;;;;;4.95;1.85;;;20.30;99.90;;;;;;5013970;28;20052;-78
2023/08/05 08:59:59;;;;;;;8.02;1.83;;;20.40;99.90;;;;;;5014186;28;20421;-77
2023/08/05 09:02:46;;;;;;;3.83;1.73;;;20.70;99.90;;;;;;5031879;28;20446;-78
2023/08/05 09:05:43;;;;;;;5.57;1.95;;;20.80;99.90;;;;;;5017489;28;20045;-78
2023/08/05 09:08:29;;;;;;;6.55;2.22;;;20.80;99.90;;;;;;5031408;28;20140;-78
2023/08/05 09:11:16;;;;;;;4.55;2.22;;;21.10;99.90;;;;;;5031429;28;20571;-78
2023/08/05 09:14:03;;;;;;;7.70;1.92;;;21.30;99.90;;;;;;5031540;28;20045;-78
2023/08/05 09:17:00;;;;;;;4.88;1.80;;;21.60;99.90;;;;;;5031660;28;20487;-78
2023/08/05 09:19:46;;;;;;;3.50;1.60;;;21.90;99.90;;;;;;5031876;28;20111;-77
2023/08/05 09:22:32;;;;;;;3.85;1.75;;;22.00;99.90;;;;;;5031302;28;20060;-77
2023/08/05 09:25:18;;;;;;;5.50;2.17;;;22.30;99.90;;;;;;5017448;28;20041;-78
2023/08/05 09:28:06;;;;;;;4.18;1.67;;;22.40;99.90;;;;;;5013758;28;20409;-79
2023/08/05 09:30:52;;;;;;;4.50;1.58;;;22.70;99.90;;;;;;5030820;28;20405;-78
2023/08/05 09:33:42;;;;;;;4.65;1.67;;;23.00;99.90;;;;;;5031603;28;20136;-79
2023/08/05 09:36:30;;;;;;;7.80;1.60;;;23.20;99.80;;;;;;5017094;28;20083;-78
2023/08/05 09:39:16;;;;;;;3.78;1.40;;;23.10;99.60;;;;;;5031116;28;20049;-78
2023/08/05 09:42:03;;;;;;;4.10;1.50;;;23.20;99.40;;;;;;5031046;28;20053;-78
2023/08/05 09:44:55;;;;;;;7.03;1.63;;;23.10;98.90;;;;;;5031570;28;20049;-78
2023/08/05 09:47:47;;;;;;;6.10;1.52;;;23.10;98.40;;;;;;5013194;28;20405;-77
2023/08/05 09:50:37;;;;;;;9.15;2.05;;;23.10;98.40;;;;;;5030814;28;20056;-78
2023/08/05 09:53:23;;;;;;;4.32;1.30;;;23.00;99.10;;;;;;5030599;28;20149;-77
2023/08/05 09:56:12;;;;;;;4.78;1.58;;;23.10;99.00;;;;;;5012710;28;20056;-78
2023/08/05 09:58:59;;;;;;;5.28;1.55;;;23.00;98.60;;;;;;5030820;28;20091;-77
2023/08/05 10:01:46;;;;;;;4.15;1.75;;;22.80;98.40;;;;;;5029834;28;20085;-78
2023/08/05 10:04:32;;;;;;;3.72;1.58;;;22.80;98.80;;;;;;5012797;28;20061;-78
2023/08/05 10:07:20;;;;;;;6.13;1.30;;;23.30;98.80;;;;;;5012766;28;20103;-78
2023/08/05 10:10:09;;;;;;;4.45;1.42;;;23.10;97.40;;;;;;5030861;28;20051;-78
2023/08/05 10:12:59;;;;;;;5.15;1.50;;;23.30;97.20;;;;;;5013089;28;20068;-77
2023/08/05 10:15:52;;;;;;;3.35;1.15;;;23.30;97.20;;;;;;5012975;28;20072;-77
2023/08/05 10:18:38;;;;;;;5.30;1.75;;;23.10;96.40;;;;;;5030108;28;20417;-77
2023/08/05 10:21:38;;;;;;;3.70;1.63;;;23.10;97.20;;;;;;5012931;28;20517;-78
2023/08/05 10:24:24;;;;;;;6.07;2.17;;;22.90;97.50;;;;;;5029810;28;20060;-78
2023/08/05 10:27:10;;;;;;;3.33;1.70;;;22.70;98.20;;;;;;5029843;28;20049;-78
2023/08/05 10:29:57;;;;;;;4.80;1.40;;;22.80;98.40;;;;;;5030115;28;20425;-78
2023/08/05 10:32:54;;;;;;;3.22;1.27;;;22.70;98.40;;;;;;5000146;28;20053;-78
2023/08/05 10:35:42;;;;;;;4.70;1.27;;;22.80;98.50;;;;;;5030337;28;20191;-78
2023/08/05 10:38:30;;;;;;;3.70;1.63;;;23.10;98.40;;;;;;4999611;28;20523;-78
2023/08/05 10:41:16;;;;;;;3.67;1.45;;;23.20;97.80;;;;;;5030044;28;20038;-77
2023/08/05 10:44:02;;;;;;;3.35;1.33;;;23.40;97.50;;;;;;5016626;28;20060;-78
2023/08/05 10:46:49;;;;;;;4.88;1.45;;;23.60;96.90;;;;;;5030156;28;20053;-77
2023/08/05 10:49:36;;;;;;;4.03;1.23;;;23.80;97.20;;;;;;5030129;28;20119;-77
2023/08/05 10:52:22;;;;;;;3.88;1.60;;;23.90;96.90;;;;;;5013049;28;20085;-77
2023/08/05 10:55:12;;;;;;;3.20;1.27;;;24.20;96.90;;;;;;5013136;28;20053;-77
2023/08/05 10:57:58;;;;;;;5.20;1.35;;;24.30;96.40;;;;;;5029970;28;20135;-78
2023/08/05 11:00:45;;;;;;;6.10;1.45;;;24.30;96.00;;;;;;5029972;28;20416;-78
2023/08/05 11:03:46;;;;;;;4.88;1.27;;;24.20;95.30;;;;;;5030013;28;20507;-78
2023/08/05 11:06:37;;;;;;;5.20;1.45;;;24.20;95.50;;;;;;5029722;28;20525;-78
2023/08/05 11:09:24;;;;;;;5.13;1.50;;;24.10;94.90;;;;;;5012896;28;20128;-78
2023/08/05 11:12:10;;;;;;;6.63;1.27;;;24.00;95.80;;;;;;5030135;28;20154;-77
2023/08/05 11:14:57;;;;;;;4.85;1.67;;;23.90;95.90;;;;;;5033371;28;20053;-78
2023/08/05 11:18:01;;;;;;;6.20;1.83;;;23.80;96.10;;;;;;5016082;28;20041;-78
2023/08/05 11:20:47;;;;;;;4.88;1.38;;;23.80;94.90;;;;;;5033746;28;20545;-78
2023/08/05 11:23:39;;;;;;;5.60;1.67;;;23.80;96.00;;;;;;5033885;28;20509;-79
2023/08/05 11:26:25;;;;;;;3.15;1.10;;;23.80;95.80;;;;;;5033891;28;20121;-79
2023/08/05 11:29:13;;;;;;;4.80;1.60;;;23.60;96.30;;;;;;5003425;28;20057;-78
2023/08/05 11:32:00;;;;;;;5.45;1.55;;;23.40;96.70;;;;;;5033165;28;20469;-78
2023/08/05 11:34:48;;;;;;;5.60;1.10;;;23.40;96.30;;;;;;5015556;28;20056;-79
2023/08/05 11:37:36;;;;;;;5.97;1.40;;;23.30;96.50;;;;;;5019324;28;20049;-78
2023/08/05 11:40:23;;;;;;;5.95;1.42;;;23.40;96.30;;;;;;5033176;28;20057;-79
2023/08/05 11:43:14;;;;;;;4.45;1.65;;;23.50;96.20;;;;;;5033300;28;20049;-77
2023/08/05 11:46:01;;;;;;;4.00;1.33;;;23.70;96.30;;;;;;5033223;28;20041;-78
2023/08/05 11:48:47;;;;;;;3.30;1.25;;;24.00;96.50;;;;;;5033344;28;20072;-78
2023/08/05 11:51:47;;;;;;;4.18;1.65;;;24.00;96.10;;;;;;5032919;28;20052;-79
2023/08/05 11:54:34;;;;;;;5.38;1.60;;;23.80;95.20;;;;;;5033288;28;20064;-78
2023/08/05 11:57:20;;;;;;;2.45;1.10;;;23.60;95.80;;;;;;5032802;28;20050;-78
2023/08/05 12:00:12;;;;;;;5.10;1.83;;;23.40;96.10;;;;;;5032835;28;20052;-78
2023/08/05 12:03:01;;;;;;;4.45;1.55;;;23.10;96.30;;;;;;5015949;28;20056;-78
2023/08/05 12:05:47;;;;;;;5.70;1.52;;;23.00;97.00;;;;;;5033169;28;20132;-77
2023/08/05 12:08:42;;;;;;;4.90;1.50;;;22.80;96.80;;;;;;5030793;28;20203;-78
2023/08/05 12:11:28;;;;;;;5.25;1.58;;;22.70;96.70;;;;;;5032896;28;20061;-78
2023/08/05 12:14:14;;;;;;;4.45;1.75;;;22.60;96.90;;;;;;5032683;28;20053;-78
2023/08/05 12:17:00;;;;;;;4.45;1.73;;;22.60;97.10;;;;;;5032578;28;20485;-78
2023/08/05 12:19:46;;;;;;;5.07;1.67;;;22.50;97.30;;;;;;5033173;28;20425;-78
2023/08/05 12:22:32;;;;;;;3.60;1.30;;;22.60;97.50;;;;;;5032691;28;20046;-78
2023/08/05 12:25:19;;;;;;;2.95;1.38;;;22.50;97.70;;;;;;5030174;28;20049;-77
2023/08/05 12:28:05;;;;;;;3.05;1.40;;;22.40;97.50;;;;;;5032797;28;20041;-78
2023/08/05 12:30:51;;;;;;;5.63;1.70;;;22.30;97.80;;;;;;5032884;28;20378;-76
2023/08/05 12:33:39;;;;;;;4.90;1.75;;;22.30;98.00;;;;;;5031220;28;20097;-76
2023/08/05 12:36:25;;;;;;;5.40;1.77;;;22.20;98.50;;;;;;5032656;28;20119;-76
2023/08/05 12:39:11;;;;;;;5.03;1.70;;;22.10;99.00;;;;;;5032688;28;20045;-79
2023/08/05 12:41:57;;;;;;;6.28;1.90;;;22.10;99.20;;;;;;5030762;28;20060;-76
2023/08/05 12:44:44;;;;;;;5.75;2.20;;;22.00;99.20;;;;;;5032200;28;20050;-78
2023/08/05 12:47:30;;;;;;;7.32;2.20;;;21.80;98.80;;;;;;5030740;28;20091;-78
2023/08/05 12:50:16;;;;;;;5.30;1.85;;;21.70;98.70;;;;;;5031924;28;20049;-78
2023/08/05 12:53:02;;;;;;;3.97;1.75;;;21.60;98.60;;;;;;5031459;28;20053;-78
2023/08/05 12:55:49;;;;;;;5.35;2.08;;;21.40;98.60;;;;;;5030824;28;20046;-76
2023/08/05 12:58:35;;;;;;;10.63;2.33;;;21.30;98.90;;;;;;5031370;28;20049;-77
2023/08/05 13:01:21;;;;;;;4.97;2.00;;;21.20;99.60;;;;;;5032007;28;20076;-76
2023/08/05 13:04:07;;;;;;;4.88;1.95;;;21.00;99.90;;;;;;5029991;28;20080;-77
2023/08/05 13:06:53;;;;;;;5.10;2.22;;;20.90;99.90;;;;;;5031426;28;20057;-76
2023/08/05 13:09:39;;;;;;;4.70;2.17;;;20.70;99.90;;;;;;5031787;28;20050;-77
2023/08/05 13:12:25;;;;;;;6.10;2.08;;;20.70;99.90;;;;;;5017424;28;20513;-77
2023/08/05 13:15:11;;;;;;;8.27;2.45;;;20.70;99.90;;;;;;5030234;28;20536;-77
2023/08/05 13:17:57;;;;;;;7.50;2.50;;;20.60;99.90;;;;;;5031855;28;20061;-77
2023/08/05 13:20:44;;;;;;;5.78;2.42;;;20.60;99.90;;;;;;5031813;28;20054;-77
2023/08/05 13:23:30;;;;;;;5.40;2.83;;;20.60;99.90;;;;;;5031637;28;20045;-76
2023/08/05 13:26:16;;;;;;;8.55;2.50;;;20.60;99.90;;;;;;5031750;28;20049;-76
2023/08/05 13:29:02;;;;;;;6.35;2.50;;;20.60;99.90;;;;;;5031739;28;20405;-77
2023/08/05 13:31:48;;;;;;;6.88;2.67;;;20.60;99.90;;;;;;5031322;28;20115;-76
2023/08/05 13:34:34;;;;;;;4.45;2.20;;;20.70;99.90;;;;;;5031404;28;20395;-78
2023/08/05 13:37:20;;;;;;;7.03;2.65;;;20.60;99.90;;;;;;5030945;28;20041;-77
2023/08/05 13:40:07;;;;;;;6.68;2.20;;;20.50;99.90;;;;;;5031151;28;20056;-77
2023/08/05 13:42:53;;;;;;;5.32;2.90;;;20.50;99.90;;;;;;5030580;28;20065;-78
2023/08/05 13:45:50;;;;;;;5.57;2.60;;;20.50;99.90;;;;;;5017189;28;20111;-77
2023/08/05 13:48:37;;;;;;;7.20;3.25;;;20.50;99.90;;;;;;5030903;28;20128;-78
2023/08/05 13:51:24;;;;;;;5.72;2.60;;;20.40;99.90;;;;;;5031317;28;20465;-77
2023/08/05 13:54:10;;;;;;;6.45;3.03;;;20.40;99.90;;;;;;5031048;28;20056;-77
2023/08/05 13:56:57;;;;;;;6.18;3.28;;;20.30;99.90;;;;;;5029323;28;20489;-77
2023/08/05 13:59:43;;;;;;;7.68;3.17;;;20.40;99.90;;;;;;5030951;28;20451;-77
2023/08/05 14:02:29;;;;;;;7.85;3.55;;;20.40;99.90;;;;;;5030402;28;20099;-76
2023/08/05 14:05:15;;;;;;;5.72;3.80;;;20.40;99.90;;;;;;5030766;28;20133;-77
2023/08/05 14:08:01;;;;;;;6.20;3.83;;;20.50;99.90;;;;;;5017582;28;20053;-77
2023/08/05 14:10:49;;;;;;;8.20;3.58;;;20.50;99.90;;;;;;5014108;28;20408;-77
2023/08/05 14:13:35;;;;;;;9.05;4.00;;;20.50;99.90;;;;;;5013529;28;20566;-77
2023/08/05 14:16:22;;;;;;;7.30;3.95;;;20.50;99.90;;;;;;5030869;28;20085;-77
2023/08/05 14:19:08;;;;;;;7.35;4.47;;;20.50;99.90;;;;;;5011945;28;20061;-77
2023/08/05 14:21:54;;;;;;;8.07;4.68;;;20.40;99.90;;;;;;5030675;28;20486;-77
2023/08/05 14:24:40;;;;;;;4.22;2.00;;;20.30;99.90;;;;;;5029017;28;20501;-77
2023/08/05 14:27:26;;;;;;;3.22;1.25;;;19.80;99.90;;;;;;5029801;28;20085;-77